sensor_id;sensor_type;location;lat;lon;timestamp;temperature;humidity
22112;DHT22;11222;50.872;4.312;2024-01-30T00:01:10;11.70;99.90
22112;DHT22;11222;50.872;4.312;2024-01-30T00:03:36;11.70;99.90
22112;DHT22;11222;50.872;4.312;2024-01-30T00:06:03;11.70;99.90
22112;DHT22;11222;50.872;4.312;2024-01-30T00:08:28;11.70;99.90
22112;DHT22;11222;50.872;4.312;2024-01-30T00:10:54;11.70;99.90
22112;DHT22;11222;50.872;4.312;2024-01-30T00:13:19;11.70;99.90
22112;DHT22;11222;50.872;4.312;2024-01-30T00:15:45;11.70;99.90
22112;DHT22;11222;50.872;4.312;2024-01-30T00:18:11;11.60;99.90
22112;DHT22;11222;50.872;4.312;2024-01-30T00:20:36;11.60;99.90
22112;DHT22;11222;50.872;4.312;2024-01-30T00:23:02;11.60;99.90
22112;DHT22;11222;50.872;4.312;2024-01-30T00:25:28;11.60;99.90
22112;DHT22;11222;50.872;4.312;2024-01-30T00:27:53;11.70;99.90
22112;DHT22;11222;50.872;4.312;2024-01-30T00:30:20;11.70;99.90
22112;DHT22;11222;50.872;4.312;2024-01-30T00:32:45;11.60;99.90
22112;DHT22;11222;50.872;4.312;2024-01-30T00:35:11;11.60;99.90
22112;DHT22;11222;50.872;4.312;2024-01-30T00:37:36;11.60;99.90
22112;DHT22;11222;50.872;4.312;2024-01-30T00:40:02;11.60;99.90
22112;DHT22;11222;50.872;4.312;2024-01-30T00:42:27;11.70;99.90
22112;DHT22;11222;50.872;4.312;2024-01-30T00:44:53;11.60;99.90
22112;DHT22;11222;50.872;4.312;2024-01-30T00:47:18;11.60;99.90
22112;DHT22;11222;50.872;4.312;2024-01-30T00:49:44;11.70;99.90
22112;DHT22;11222;50.872;4.312;2024-01-30T00:52:10;11.70;99.90
22112;DHT22;11222;50.872;4.312;2024-01-30T00:54:35;11.70;99.90
22112;DHT22;11222;50.872;4.312;2024-01-30T00:57:01;11.70;99.90
22112;DHT22;11222;50.872;4.312;2024-01-30T00:59:26;11.60;99.90
22112;DHT22;11222;50.872;4.312;2024-01-30T01:01:52;11.70;99.90
22112;DHT22;11222;50.872;4.312;2024-01-30T01:04:17;11.60;99.90
22112;DHT22;11222;50.872;4.312;2024-01-30T01:06:43;11.60;99.90
22112;DHT22;11222;50.872;4.312;2024-01-30T01:09:10;11.60;99.90
22112;DHT22;11222;50.872;4.312;2024-01-30T01:11:36;11.60;99.90
22112;DHT22;11222;50.872;4.312;2024-01-30T01:14:03;11.60;99.90
22112;DHT22;11222;50.872;4.312;2024-01-30T01:16:29;11.60;99.90
22112;DHT22;11222;50.872;4.312;2024-01-30T01:18:55;11.60;99.90
22112;DHT22;11222;50.872;4.312;2024-01-30T01:21:20;11.60;99.90
22112;DHT22;11222;50.872;4.312;2024-01-30T01:23:46;11.60;99.90
22112;DHT22;11222;50.872;4.312;2024-01-30T01:26:11;11.70;99.90
22112;DHT22;11222;50.872;4.312;2024-01-30T01:28:37;11.70;99.90
22112;DHT22;11222;50.872;4.312;2024-01-30T01:31:04;11.70;99.90
22112;DHT22;11222;50.872;4.312;2024-01-30T01:33:31;11.70;99.90
22112;DHT22;11222;50.872;4.312;2024-01-30T01:35:58;11.70;99.90
22112;DHT22;11222;50.872;4.312;2024-01-30T01:38:23;11.80;99.90
22112;DHT22;11222;50.872;4.312;2024-01-30T01:40:49;11.70;99.90
22112;DHT22;11222;50.872;4.312;2024-01-30T01:43:15;11.80;99.90
22112;DHT22;11222;50.872;4.312;2024-01-30T01:45:40;11.80;99.90
22112;DHT22;11222;50.872;4.312;2024-01-30T01:48:06;11.80;99.90
22112;DHT22;11222;50.872;4.312;2024-01-30T01:50:33;11.80;99.90
22112;DHT22;11222;50.872;4.312;2024-01-30T01:52:59;11.80;99.90
22112;DHT22;11222;50.872;4.312;2024-01-30T01:55:24;11.90;99.90
22112;DHT22;11222;50.872;4.312;2024-01-30T01:57:52;11.90;99.90
22112;DHT22;11222;50.872;4.312;2024-01-30T02:00:18;11.90;99.90
22112;DHT22;11222;50.872;4.312;2024-01-30T02:02:45;11.90;99.90
22112;DHT22;11222;50.872;4.312;2024-01-30T02:05:11;11.90;99.90
22112;DHT22;11222;50.872;4.312;2024-01-30T02:07:36;11.90;99.90
22112;DHT22;11222;50.872;4.312;2024-01-30T02:10:02;11.90;99.90
22112;DHT22;11222;50.872;4.312;2024-01-30T02:12:29;11.90;99.90
22112;DHT22;11222;50.872;4.312;2024-01-30T02:14:55;11.90;99.90
22112;DHT22;11222;50.872;4.312;2024-01-30T02:17:21;11.90;99.90
22112;DHT22;11222;50.872;4.312;2024-01-30T02:19:48;11.90;99.90
22112;DHT22;11222;50.872;4.312;2024-01-30T02:22:14;11.80;99.90
22112;DHT22;11222;50.872;4.312;2024-01-30T02:24:40;11.80;99.90
22112;DHT22;11222;50.872;4.312;2024-01-30T02:27:05;11.80;99.90
22112;DHT22;11222;50.872;4.312;2024-01-30T02:29:31;11.80;99.90
22112;DHT22;11222;50.872;4.312;2024-01-30T02:31:56;11.80;99.90
22112;DHT22;11222;50.872;4.312;2024-01-30T02:34:22;11.80;99.90
22112;DHT22;11222;50.872;4.312;2024-01-30T02:36:47;11.80;99.90
22112;DHT22;11222;50.872;4.312;2024-01-30T02:39:13;11.80;99.90
22112;DHT22;11222;50.872;4.312;2024-01-30T02:41:38;11.90;99.90
22112;DHT22;11222;50.872;4.312;2024-01-30T02:44:04;11.80;99.90
22112;DHT22;11222;50.872;4.312;2024-01-30T02:46:30;11.80;99.90
22112;DHT22;11222;50.872;4.312;2024-01-30T02:48:55;11.90;99.90
22112;DHT22;11222;50.872;4.312;2024-01-30T02:51:21;11.80;99.90
22112;DHT22;11222;50.872;4.312;2024-01-30T02:53:46;11.80;99.90
22112;DHT22;11222;50.872;4.312;2024-01-30T02:56:12;11.80;99.90
22112;DHT22;11222;50.872;4.312;2024-01-30T02:58:39;11.80;99.90
22112;DHT22;11222;50.872;4.312;2024-01-30T03:01:05;11.90;99.90
22112;DHT22;11222;50.872;4.312;2024-01-30T03:03:30;11.80;99.90
22112;DHT22;11222;50.872;4.312;2024-01-30T03:05:56;11.80;99.90
22112;DHT22;11222;50.872;4.312;2024-01-30T03:08:21;11.80;99.90
22112;DHT22;11222;50.872;4.312;2024-01-30T03:10:47;11.80;99.90
22112;DHT22;11222;50.872;4.312;2024-01-30T03:13:12;11.80;99.90
22112;DHT22;11222;50.872;4.312;2024-01-30T03:15:38;11.80;99.90
22112;DHT22;11222;50.872;4.312;2024-01-30T03:18:03;11.80;99.90
22112;DHT22;11222;50.872;4.312;2024-01-30T03:20:29;11.70;99.90
22112;DHT22;11222;50.872;4.312;2024-01-30T03:22:55;11.70;99.90
22112;DHT22;11222;50.872;4.312;2024-01-30T03:25:20;11.70;99.90
22112;DHT22;11222;50.872;4.312;2024-01-30T03:27:46;11.80;99.90
22112;DHT22;11222;50.872;4.312;2024-01-30T03:30:12;11.80;99.90
22112;DHT22;11222;50.872;4.312;2024-01-30T03:32:37;11.80;99.90
22112;DHT22;11222;50.872;4.312;2024-01-30T03:35:03;11.80;99.90
22112;DHT22;11222;50.872;4.312;2024-01-30T03:37:29;11.80;99.90
22112;DHT22;11222;50.872;4.312;2024-01-30T03:39:55;11.80;99.90
22112;DHT22;11222;50.872;4.312;2024-01-30T03:42:20;11.80;99.90
22112;DHT22;11222;50.872;4.312;2024-01-30T03:44:46;11.80;99.90
22112;DHT22;11222;50.872;4.312;2024-01-30T03:47:11;11.80;99.90
22112;DHT22;11222;50.872;4.312;2024-01-30T03:49:37;11.80;99.90
22112;DHT22;11222;50.872;4.312;2024-01-30T03:52:02;11.80;99.90
22112;DHT22;11222;50.872;4.312;2024-01-30T03:54:28;11.80;99.90
22112;DHT22;11222;50.872;4.312;2024-01-30T03:56:53;11.80;99.90
22112;DHT22;11222;50.872;4.312;2024-01-30T03:59:19;11.70;99.90
22112;DHT22;11222;50.872;4.312;2024-01-30T04:01:49;11.70;99.90
22112;DHT22;11222;50.872;4.312;2024-01-30T04:04:16;11.70;99.90
22112;DHT22;11222;50.872;4.312;2024-01-30T04:06:42;11.70;99.90
22112;DHT22;11222;50.872;4.312;2024-01-30T04:09:07;11.70;99.90
22112;DHT22;11222;50.872;4.312;2024-01-30T04:11:33;11.70;99.90
22112;DHT22;11222;50.872;4.312;2024-01-30T04:13:58;11.70;99.90
22112;DHT22;11222;50.872;4.312;2024-01-30T04:16:24;11.70;99.90
22112;DHT22;11222;50.872;4.312;2024-01-30T04:18:50;11.70;99.90
22112;DHT22;11222;50.872;4.312;2024-01-30T04:21:16;11.80;99.90
22112;DHT22;11222;50.872;4.312;2024-01-30T04:23:41;11.70;99.90
22112;DHT22;11222;50.872;4.312;2024-01-30T04:26:07;11.70;99.90
22112;DHT22;11222;50.872;4.312;2024-01-30T04:28:32;11.70;99.90
22112;DHT22;11222;50.872;4.312;2024-01-30T04:30:58;11.70;99.90
22112;DHT22;11222;50.872;4.312;2024-01-30T04:33:24;11.70;99.90
22112;DHT22;11222;50.872;4.312;2024-01-30T04:35:49;11.70;99.90
22112;DHT22;11222;50.872;4.312;2024-01-30T04:38:15;11.70;99.90
22112;DHT22;11222;50.872;4.312;2024-01-30T04:40:40;11.70;99.90
22112;DHT22;11222;50.872;4.312;2024-01-30T04:43:06;11.70;99.90
22112;DHT22;11222;50.872;4.312;2024-01-30T04:45:31;11.70;99.90
22112;DHT22;11222;50.872;4.312;2024-01-30T04:47:57;11.70;99.90
22112;DHT22;11222;50.872;4.312;2024-01-30T04:50:23;11.70;99.90
22112;DHT22;11222;50.872;4.312;2024-01-30T04:52:48;11.70;99.90
22112;DHT22;11222;50.872;4.312;2024-01-30T04:55:14;11.70;99.90
22112;DHT22;11222;50.872;4.312;2024-01-30T04:57:39;11.70;99.90
22112;DHT22;11222;50.872;4.312;2024-01-30T05:00:05;11.70;99.90
22112;DHT22;11222;50.872;4.312;2024-01-30T05:02:31;11.70;99.90
22112;DHT22;11222;50.872;4.312;2024-01-30T05:04:57;11.70;99.90
22112;DHT22;11222;50.872;4.312;2024-01-30T05:07:24;11.70;99.90
22112;DHT22;11222;50.872;4.312;2024-01-30T05:09:49;11.60;99.90
22112;DHT22;11222;50.872;4.312;2024-01-30T05:12:15;11.60;99.90
22112;DHT22;11222;50.872;4.312;2024-01-30T05:14:40;11.70;99.90
22112;DHT22;11222;50.872;4.312;2024-01-30T05:17:06;11.60;99.90
22112;DHT22;11222;50.872;4.312;2024-01-30T05:19:33;11.60;99.90
22112;DHT22;11222;50.872;4.312;2024-01-30T05:21:58;11.60;99.90
22112;DHT22;11222;50.872;4.312;2024-01-30T05:24:24;11.50;99.90
22112;DHT22;11222;50.872;4.312;2024-01-30T05:26:49;11.60;99.90
22112;DHT22;11222;50.872;4.312;2024-01-30T05:29:16;11.60;99.90
22112;DHT22;11222;50.872;4.312;2024-01-30T05:31:42;11.50;99.90
22112;DHT22;11222;50.872;4.312;2024-01-30T05:34:07;11.60;99.90
22112;DHT22;11222;50.872;4.312;2024-01-30T05:36:34;11.50;99.90
22112;DHT22;11222;50.872;4.312;2024-01-30T05:38:59;11.50;99.90
22112;DHT22;11222;50.872;4.312;2024-01-30T05:41:25;11.50;99.90
22112;DHT22;11222;50.872;4.312;2024-01-30T05:43:54;11.50;99.90
22112;DHT22;11222;50.872;4.312;2024-01-30T05:46:19;11.50;99.90
22112;DHT22;11222;50.872;4.312;2024-01-30T05:48:45;11.50;99.90
22112;DHT22;11222;50.872;4.312;2024-01-30T05:51:10;11.50;99.90
22112;DHT22;11222;50.872;4.312;2024-01-30T05:53:36;11.50;99.90
22112;DHT22;11222;50.872;4.312;2024-01-30T05:56:01;11.60;99.90
22112;DHT22;11222;50.872;4.312;2024-01-30T05:58:27;11.60;99.90
22112;DHT22;11222;50.872;4.312;2024-01-30T06:00:53;11.60;99.90
22112;DHT22;11222;50.872;4.312;2024-01-30T06:03:18;11.60;99.90
22112;DHT22;11222;50.872;4.312;2024-01-30T06:05:44;11.60;99.90
22112;DHT22;11222;50.872;4.312;2024-01-30T06:08:09;11.50;99.90
22112;DHT22;11222;50.872;4.312;2024-01-30T06:10:35;11.50;99.90
22112;DHT22;11222;50.872;4.312;2024-01-30T06:13:01;11.50;99.90
22112;DHT22;11222;50.872;4.312;2024-01-30T06:15:26;11.50;99.90
22112;DHT22;11222;50.872;4.312;2024-01-30T06:17:52;11.50;99.90
22112;DHT22;11222;50.872;4.312;2024-01-30T06:20:17;11.40;99.90
22112;DHT22;11222;50.872;4.312;2024-01-30T06:22:43;11.50;99.90
22112;DHT22;11222;50.872;4.312;2024-01-30T06:25:08;11.40;99.90
22112;DHT22;11222;50.872;4.312;2024-01-30T06:27:35;11.40;99.90
22112;DHT22;11222;50.872;4.312;2024-01-30T06:30:01;11.40;99.90
22112;DHT22;11222;50.872;4.312;2024-01-30T06:32:26;11.50;99.90
22112;DHT22;11222;50.872;4.312;2024-01-30T06:34:53;11.50;99.90
22112;DHT22;11222;50.872;4.312;2024-01-30T06:37:19;11.40;99.90
22112;DHT22;11222;50.872;4.312;2024-01-30T06:39:45;11.40;99.90
22112;DHT22;11222;50.872;4.312;2024-01-30T06:42:10;11.30;99.90
22112;DHT22;11222;50.872;4.312;2024-01-30T06:44:37;11.30;99.90
22112;DHT22;11222;50.872;4.312;2024-01-30T06:47:02;11.40;99.90
22112;DHT22;11222;50.872;4.312;2024-01-30T06:49:28;11.40;99.90
22112;DHT22;11222;50.872;4.312;2024-01-30T06:51:53;11.40;99.90
22112;DHT22;11222;50.872;4.312;2024-01-30T06:54:19;11.40;99.90
22112;DHT22;11222;50.872;4.312;2024-01-30T06:56:44;11.40;99.90
22112;DHT22;11222;50.872;4.312;2024-01-30T06:59:10;11.40;99.90
22112;DHT22;11222;50.872;4.312;2024-01-30T07:01:35;11.40;99.90
22112;DHT22;11222;50.872;4.312;2024-01-30T07:04:01;11.50;99.90
22112;DHT22;11222;50.872;4.312;2024-01-30T07:06:26;11.50;99.90
22112;DHT22;11222;50.872;4.312;2024-01-30T07:08:52;11.60;99.90
22112;DHT22;11222;50.872;4.312;2024-01-30T07:11:18;11.60;99.90
22112;DHT22;11222;50.872;4.312;2024-01-30T07:13:44;11.60;99.90
22112;DHT22;11222;50.872;4.312;2024-01-30T07:16:09;11.60;99.90
22112;DHT22;11222;50.872;4.312;2024-01-30T07:18:35;11.60;99.90
22112;DHT22;11222;50.872;4.312;2024-01-30T07:21:00;11.60;99.90
22112;DHT22;11222;50.872;4.312;2024-01-30T07:23:26;11.60;99.90
22112;DHT22;11222;50.872;4.312;2024-01-30T07:25:51;11.60;99.90
22112;DHT22;11222;50.872;4.312;2024-01-30T07:28:17;11.60;99.90
22112;DHT22;11222;50.872;4.312;2024-01-30T07:30:43;11.60;99.90
22112;DHT22;11222;50.872;4.312;2024-01-30T07:33:08;11.60;99.90
22112;DHT22;11222;50.872;4.312;2024-01-30T07:35:34;11.60;99.90
22112;DHT22;11222;50.872;4.312;2024-01-30T07:38:00;11.50;99.90
22112;DHT22;11222;50.872;4.312;2024-01-30T07:40:25;11.50;99.90
22112;DHT22;11222;50.872;4.312;2024-01-30T07:42:53;11.40;99.90
22112;DHT22;11222;50.872;4.312;2024-01-30T07:45:18;11.40;99.90
22112;DHT22;11222;50.872;4.312;2024-01-30T07:47:51;11.50;99.90
22112;DHT22;11222;50.872;4.312;2024-01-30T07:50:16;11.50;99.90
22112;DHT22;11222;50.872;4.312;2024-01-30T07:52:42;11.50;99.90
22112;DHT22;11222;50.872;4.312;2024-01-30T07:55:10;11.50;99.90
22112;DHT22;11222;50.872;4.312;2024-01-30T07:57:38;11.50;99.90
22112;DHT22;11222;50.872;4.312;2024-01-30T08:00:03;11.50;99.90
22112;DHT22;11222;50.872;4.312;2024-01-30T08:02:31;11.50;99.90
22112;DHT22;11222;50.872;4.312;2024-01-30T08:04:56;11.50;99.90
22112;DHT22;11222;50.872;4.312;2024-01-30T08:07:22;11.50;99.90
22112;DHT22;11222;50.872;4.312;2024-01-30T08:09:47;11.50;99.90
22112;DHT22;11222;50.872;4.312;2024-01-30T08:12:13;11.50;99.90
22112;DHT22;11222;50.872;4.312;2024-01-30T08:14:39;11.50;99.90
22112;DHT22;11222;50.872;4.312;2024-01-30T08:17:05;11.50;99.90
22112;DHT22;11222;50.872;4.312;2024-01-30T08:19:32;11.50;99.90
22112;DHT22;11222;50.872;4.312;2024-01-30T08:21:58;11.50;99.90
22112;DHT22;11222;50.872;4.312;2024-01-30T08:24:24;11.50;99.90
22112;DHT22;11222;50.872;4.312;2024-01-30T08:26:49;11.50;99.90
22112;DHT22;11222;50.872;4.312;2024-01-30T08:29:15;11.60;99.90
22112;DHT22;11222;50.872;4.312;2024-01-30T08:31:40;11.70;99.90
22112;DHT22;11222;50.872;4.312;2024-01-30T08:34:06;11.70;99.90
22112;DHT22;11222;50.872;4.312;2024-01-30T08:36:32;11.70;99.90
22112;DHT22;11222;50.872;4.312;2024-01-30T08:38:57;11.70;99.90
22112;DHT22;11222;50.872;4.312;2024-01-30T08:41:23;11.80;99.90
22112;DHT22;11222;50.872;4.312;2024-01-30T08:43:49;11.90;99.90
22112;DHT22;11222;50.872;4.312;2024-01-30T08:46:17;11.90;99.90
22112;DHT22;11222;50.872;4.312;2024-01-30T08:48:42;11.80;99.90
22112;DHT22;11222;50.872;4.312;2024-01-30T08:51:08;11.90;99.90
22112;DHT22;11222;50.872;4.312;2024-01-30T08:53:34;11.90;99.90
22112;DHT22;11222;50.872;4.312;2024-01-30T08:56:01;11.90;99.90
22112;DHT22;11222;50.872;4.312;2024-01-30T08:58:26;11.90;99.90
22112;DHT22;11222;50.872;4.312;2024-01-30T09:00:51;11.90;99.90
22112;DHT22;11222;50.872;4.312;2024-01-30T09:03:18;11.80;99.90
22112;DHT22;11222;50.872;4.312;2024-01-30T09:05:43;11.80;99.90
22112;DHT22;11222;50.872;4.312;2024-01-30T09:08:09;11.80;99.90
22112;DHT22;11222;50.872;4.312;2024-01-30T09:10:35;11.80;99.90
22112;DHT22;11222;50.872;4.312;2024-01-30T09:13:01;11.80;99.90
22112;DHT22;11222;50.872;4.312;2024-01-30T09:15:26;11.70;99.90
22112;DHT22;11222;50.872;4.312;2024-01-30T09:17:52;11.80;99.90
22112;DHT22;11222;50.872;4.312;2024-01-30T09:20:17;11.70;99.90
22112;DHT22;11222;50.872;4.312;2024-01-30T09:22:45;11.80;99.90
22112;DHT22;11222;50.872;4.312;2024-01-30T09:25:10;11.80;99.90
22112;DHT22;11222;50.872;4.312;2024-01-30T09:27:36;11.70;99.90
22112;DHT22;11222;50.872;4.312;2024-01-30T09:30:01;11.70;99.90
22112;DHT22;11222;50.872;4.312;2024-01-30T09:32:28;11.70;99.90
22112;DHT22;11222;50.872;4.312;2024-01-30T09:34:54;11.70;99.90
22112;DHT22;11222;50.872;4.312;2024-01-30T09:37:19;11.70;99.90
22112;DHT22;11222;50.872;4.312;2024-01-30T09:39:45;11.70;99.90
22112;DHT22;11222;50.872;4.312;2024-01-30T09:44:55;11.70;99.90
22112;DHT22;11222;50.872;4.312;2024-01-30T09:47:21;11.80;99.90
22112;DHT22;11222;50.872;4.312;2024-01-30T09:49:46;11.80;99.90
22112;DHT22;11222;50.872;4.312;2024-01-30T09:52:13;11.70;99.90
22112;DHT22;11222;50.872;4.312;2024-01-30T09:54:38;11.70;99.90
22112;DHT22;11222;50.872;4.312;2024-01-30T09:57:04;11.70;99.90
22112;DHT22;11222;50.872;4.312;2024-01-30T09:59:30;11.70;99.90
22112;DHT22;11222;50.872;4.312;2024-01-30T10:01:56;11.70;99.90
22112;DHT22;11222;50.872;4.312;2024-01-30T10:04:22;11.70;99.90
22112;DHT22;11222;50.872;4.312;2024-01-30T10:06:47;11.70;99.90
22112;DHT22;11222;50.872;4.312;2024-01-30T10:09:13;11.80;99.90
22112;DHT22;11222;50.872;4.312;2024-01-30T10:11:39;11.70;99.90
22112;DHT22;11222;50.872;4.312;2024-01-30T10:14:04;11.70;99.90
22112;DHT22;11222;50.872;4.312;2024-01-30T10:16:30;11.70;99.90
22112;DHT22;11222;50.872;4.312;2024-01-30T10:18:55;11.80;99.90
22112;DHT22;11222;50.872;4.312;2024-01-30T10:21:21;11.80;99.90
22112;DHT22;11222;50.872;4.312;2024-01-30T10:23:47;11.70;99.90
22112;DHT22;11222;50.872;4.312;2024-01-30T10:26:13;11.70;99.90
22112;DHT22;11222;50.872;4.312;2024-01-30T10:28:39;11.70;99.90
22112;DHT22;11222;50.872;4.312;2024-01-30T10:31:04;11.80;99.90
22112;DHT22;11222;50.872;4.312;2024-01-30T10:33:30;11.60;99.90
22112;DHT22;11222;50.872;4.312;2024-01-30T10:36:02;11.60;99.90
22112;DHT22;11222;50.872;4.312;2024-01-30T10:38:29;11.60;99.90
22112;DHT22;11222;50.872;4.312;2024-01-30T10:40:56;11.60;99.90
22112;DHT22;11222;50.872;4.312;2024-01-30T10:43:22;11.60;99.90
22112;DHT22;11222;50.872;4.312;2024-01-30T10:45:49;11.60;99.90
22112;DHT22;11222;50.872;4.312;2024-01-30T10:48:16;11.70;99.90
22112;DHT22;11222;50.872;4.312;2024-01-30T10:50:41;11.70;99.90
22112;DHT22;11222;50.872;4.312;2024-01-30T10:53:08;11.70;99.90
22112;DHT22;11222;50.872;4.312;2024-01-30T10:55:34;11.70;99.90
22112;DHT22;11222;50.872;4.312;2024-01-30T10:58:00;11.60;99.90
22112;DHT22;11222;50.872;4.312;2024-01-30T11:00:26;11.50;99.90
22112;DHT22;11222;50.872;4.312;2024-01-30T11:02:52;11.40;99.90
22112;DHT22;11222;50.872;4.312;2024-01-30T11:05:24;11.20;99.90
22112;DHT22;11222;50.872;4.312;2024-01-30T11:07:53;11.10;99.90
22112;DHT22;11222;50.872;4.312;2024-01-30T11:10:18;11.00;99.90
22112;DHT22;11222;50.872;4.312;2024-01-30T11:12:45;11.00;99.90
22112;DHT22;11222;50.872;4.312;2024-01-30T11:15:17;11.00;99.90
22112;DHT22;11222;50.872;4.312;2024-01-30T11:20:10;10.90;99.90
22112;DHT22;11222;50.872;4.312;2024-01-30T11:22:36;10.90;99.90
22112;DHT22;11222;50.872;4.312;2024-01-30T11:25:02;10.90;99.90
22112;DHT22;11222;50.872;4.312;2024-01-30T11:27:29;11.00;99.90
22112;DHT22;11222;50.872;4.312;2024-01-30T11:30:03;11.00;99.90
22112;DHT22;11222;50.872;4.312;2024-01-30T11:32:29;11.00;99.90
22112;DHT22;11222;50.872;4.312;2024-01-30T11:34:55;11.00;99.90
22112;DHT22;11222;50.872;4.312;2024-01-30T11:37:20;11.20;99.90
22112;DHT22;11222;50.872;4.312;2024-01-30T11:39:47;11.20;99.90
22112;DHT22;11222;50.872;4.312;2024-01-30T11:42:13;11.30;99.90
22112;DHT22;11222;50.872;4.312;2024-01-30T11:44:39;11.50;99.90
22112;DHT22;11222;50.872;4.312;2024-01-30T11:47:04;11.50;99.90
22112;DHT22;11222;50.872;4.312;2024-01-30T11:49:30;11.50;99.90
22112;DHT22;11222;50.872;4.312;2024-01-30T11:51:56;11.50;99.90
22112;DHT22;11222;50.872;4.312;2024-01-30T11:54:21;11.40;99.90
22112;DHT22;11222;50.872;4.312;2024-01-30T11:56:47;11.40;99.90
22112;DHT22;11222;50.872;4.312;2024-01-30T11:59:13;11.50;99.90
22112;DHT22;11222;50.872;4.312;2024-01-30T12:01:39;11.50;99.90
22112;DHT22;11222;50.872;4.312;2024-01-30T12:04:05;11.50;99.90
22112;DHT22;11222;50.872;4.312;2024-01-30T12:06:34;11.40;99.90
22112;DHT22;11222;50.872;4.312;2024-01-30T12:09:00;11.40;99.90
22112;DHT22;11222;50.872;4.312;2024-01-30T12:11:29;11.30;99.90
22112;DHT22;11222;50.872;4.312;2024-01-30T12:13:55;11.30;99.90
22112;DHT22;11222;50.872;4.312;2024-01-30T12:16:21;11.50;99.90
22112;DHT22;11222;50.872;4.312;2024-01-30T12:18:47;11.40;99.90
22112;DHT22;11222;50.872;4.312;2024-01-30T12:21:12;11.20;99.90
22112;DHT22;11222;50.872;4.312;2024-01-30T12:23:41;11.20;99.90
22112;DHT22;11222;50.872;4.312;2024-01-30T12:26:06;11.40;99.90
22112;DHT22;11222;50.872;4.312;2024-01-30T12:28:32;11.50;99.90
22112;DHT22;11222;50.872;4.312;2024-01-30T12:31:01;11.40;99.90
22112;DHT22;11222;50.872;4.312;2024-01-30T12:33:28;11.30;99.90
22112;DHT22;11222;50.872;4.312;2024-01-30T12:35:54;11.40;99.90
22112;DHT22;11222;50.872;4.312;2024-01-30T12:38:20;11.40;99.90
22112;DHT22;11222;50.872;4.312;2024-01-30T12:40:45;11.40;99.90
22112;DHT22;11222;50.872;4.312;2024-01-30T12:43:13;11.50;99.90
22112;DHT22;11222;50.872;4.312;2024-01-30T12:45:38;11.50;99.90
22112;DHT22;11222;50.872;4.312;2024-01-30T12:48:04;11.50;99.90
22112;DHT22;11222;50.872;4.312;2024-01-30T12:50:30;11.60;99.90
22112;DHT22;11222;50.872;4.312;2024-01-30T12:52:55;11.50;99.90
22112;DHT22;11222;50.872;4.312;2024-01-30T12:55:21;11.50;99.90
22112;DHT22;11222;50.872;4.312;2024-01-30T12:57:47;11.40;99.90
22112;DHT22;11222;50.872;4.312;2024-01-30T13:00:12;11.20;99.90
22112;DHT22;11222;50.872;4.312;2024-01-30T13:02:38;11.10;99.90
22112;DHT22;11222;50.872;4.312;2024-01-30T13:05:04;11.00;99.90
22112;DHT22;11222;50.872;4.312;2024-01-30T13:07:29;10.90;99.90
22112;DHT22;11222;50.872;4.312;2024-01-30T13:09:56;10.90;99.90
22112;DHT22;11222;50.872;4.312;2024-01-30T13:12:21;10.80;99.90
22112;DHT22;11222;50.872;4.312;2024-01-30T13:14:47;10.80;99.90
22112;DHT22;11222;50.872;4.312;2024-01-30T13:17:12;10.70;99.90
22112;DHT22;11222;50.872;4.312;2024-01-30T13:19:38;10.70;99.90
22112;DHT22;11222;50.872;4.312;2024-01-30T13:22:04;10.70;99.90
22112;DHT22;11222;50.872;4.312;2024-01-30T13:24:29;10.60;99.90
22112;DHT22;11222;50.872;4.312;2024-01-30T13:26:55;10.70;99.90
22112;DHT22;11222;50.872;4.312;2024-01-30T13:29:20;10.60;99.90
22112;DHT22;11222;50.872;4.312;2024-01-30T13:31:46;10.70;99.90
22112;DHT22;11222;50.872;4.312;2024-01-30T13:34:12;10.80;99.90
22112;DHT22;11222;50.872;4.312;2024-01-30T13:36:38;11.00;99.90
22112;DHT22;11222;50.872;4.312;2024-01-30T13:39:04;11.10;99.90
22112;DHT22;11222;50.872;4.312;2024-01-30T13:41:33;11.30;99.90
22112;DHT22;11222;50.872;4.312;2024-01-30T13:43:59;11.30;99.90
22112;DHT22;11222;50.872;4.312;2024-01-30T13:46:24;11.40;99.90
22112;DHT22;11222;50.872;4.312;2024-01-30T13:48:50;11.30;99.90
22112;DHT22;11222;50.872;4.312;2024-01-30T13:51:16;11.20;99.90
22112;DHT22;11222;50.872;4.312;2024-01-30T13:53:42;11.10;99.90
22112;DHT22;11222;50.872;4.312;2024-01-30T13:56:08;11.10;99.90
22112;DHT22;11222;50.872;4.312;2024-01-30T13:58:33;11.00;99.90
22112;DHT22;11222;50.872;4.312;2024-01-30T14:01:01;11.00;99.90
22112;DHT22;11222;50.872;4.312;2024-01-30T14:03:27;11.10;99.90
22112;DHT22;11222;50.872;4.312;2024-01-30T14:05:52;11.20;99.90
22112;DHT22;11222;50.872;4.312;2024-01-30T14:08:18;11.00;99.90
22112;DHT22;11222;50.872;4.312;2024-01-30T14:10:45;10.90;99.90
22112;DHT22;11222;50.872;4.312;2024-01-30T14:13:10;10.90;99.90
22112;DHT22;11222;50.872;4.312;2024-01-30T14:15:37;10.80;99.90
22112;DHT22;11222;50.872;4.312;2024-01-30T14:18:02;10.70;99.90
22112;DHT22;11222;50.872;4.312;2024-01-30T14:20:28;10.60;99.90
22112;DHT22;11222;50.872;4.312;2024-01-30T14:22:53;10.70;99.90
22112;DHT22;11222;50.872;4.312;2024-01-30T14:25:20;10.70;99.90
22112;DHT22;11222;50.872;4.312;2024-01-30T14:27:46;10.70;99.90
22112;DHT22;11222;50.872;4.312;2024-01-30T14:30:12;10.50;99.90
22112;DHT22;11222;50.872;4.312;2024-01-30T14:32:37;10.40;99.90
22112;DHT22;11222;50.872;4.312;2024-01-30T14:35:04;10.30;99.90
22112;DHT22;11222;50.872;4.312;2024-01-30T14:37:30;10.20;99.90
22112;DHT22;11222;50.872;4.312;2024-01-30T14:39:55;10.30;99.90
22112;DHT22;11222;50.872;4.312;2024-01-30T14:42:21;10.30;99.90
22112;DHT22;11222;50.872;4.312;2024-01-30T14:44:46;10.30;99.90
22112;DHT22;11222;50.872;4.312;2024-01-30T14:47:12;10.30;99.90
22112;DHT22;11222;50.872;4.312;2024-01-30T14:49:38;10.10;99.90
22112;DHT22;11222;50.872;4.312;2024-01-30T14:52:04;10.10;99.90
22112;DHT22;11222;50.872;4.312;2024-01-30T14:54:29;10.10;99.90
22112;DHT22;11222;50.872;4.312;2024-01-30T14:56:55;10.10;99.90
22112;DHT22;11222;50.872;4.312;2024-01-30T14:59:21;10.10;99.90
22112;DHT22;11222;50.872;4.312;2024-01-30T15:01:47;10.10;99.90
22112;DHT22;11222;50.872;4.312;2024-01-30T15:04:13;10.10;99.90
22112;DHT22;11222;50.872;4.312;2024-01-30T15:06:39;10.10;99.90
22112;DHT22;11222;50.872;4.312;2024-01-30T15:09:11;10.00;99.90
22112;DHT22;11222;50.872;4.312;2024-01-30T15:11:36;10.00;99.90
22112;DHT22;11222;50.872;4.312;2024-01-30T15:14:02;10.00;99.90
22112;DHT22;11222;50.872;4.312;2024-01-30T15:16:27;10.00;99.90
22112;DHT22;11222;50.872;4.312;2024-01-30T15:18:53;9.90;99.90
22112;DHT22;11222;50.872;4.312;2024-01-30T15:21:19;10.00;99.90
22112;DHT22;11222;50.872;4.312;2024-01-30T15:23:48;9.90;99.90
22112;DHT22;11222;50.872;4.312;2024-01-30T15:26:14;9.90;99.90